Main page
METAR-TAF:

METAR-TAF

Airports :

Getafe Air Base

Madrid-Getafe, Spain

latitude: 40-18N, longitude: 003-43W, elevation: 620 m

Current weather observation

The report was made 41 minutes ago, at 15:00 UTC
Wind 3 kt from the Southwest
Temperature 23°C
Humidity 20%
Pressure 1012 hPa
Visibility 10 km or more
Few clouds at a height of 4500 ft

METAR: LEGT 201500Z 22003KT 9999 FEW045 23/M01 Q1012

Time: 17:41 (15:41 UTC)

Forecast

The report was made 1 hour and 41 minutes ago, at 14:00 UTC
Forecast valid from 20 at 15 UTC to 20 at 24 UTC
Wind 5 kt from variable directions
Visibility 10 km or more
Few clouds at a height of 3000 ft

TAF: LEGT 201400Z 2015/2024 VRB05KT 9999 FEW030

Weather observations and forecasts of more than 4000 airports (METAR and TAF reports).

The available stations are represented by yellow and red dots on the map.

Hover mouse over dot to see the name of the station.

Then click to see weather observations and forecasts.

To change the map : click on the green buttons with a black cross to zoom in, on the green button with a dash to zoom out, or on the green arrows for adjacent maps.


METAR-TAF: